createdAt,value
2018-07-06T04:50:49.184Z,24.94
2018-07-06T04:52:06.571Z,24.94
2018-07-06T04:53:23.118Z,24.93
2018-07-06T04:54:39.791Z,24.93
2018-07-06T04:55:57.165Z,24.95
2018-07-06T04:57:13.563Z,25.01
2018-07-06T04:58:30.477Z,25.07
2018-07-06T04:59:47.088Z,25.08
2018-07-06T05:01:03.903Z,25.14
2018-07-06T05:02:20.595Z,25.20
2018-07-06T05:03:37.419Z,25.29
2018-07-06T05:06:03.472Z,25.66
2018-07-06T05:07:21.723Z,25.75
2018-07-06T05:08:39.171Z,25.81
2018-07-06T05:09:55.594Z,25.90
2018-07-06T05:11:11.944Z,26.02
2018-07-06T05:12:28.452Z,26.11
2018-07-06T05:13:44.827Z,26.17
2018-07-06T05:15:01.189Z,26.34
2018-07-06T05:16:17.917Z,26.50
2018-07-06T05:17:34.412Z,26.56
2018-07-06T05:18:50.933Z,26.59
2018-07-06T05:20:10.197Z,26.62
2018-07-06T05:21:26.632Z,26.70
2018-07-06T05:22:43.156Z,26.77
2018-07-06T05:23:59.654Z,26.85
2018-07-06T05:25:16.281Z,27.03
2018-07-06T05:26:32.594Z,27.35
2018-07-06T05:27:51.799Z,27.66
2018-07-06T05:29:08.203Z,28.06
2018-07-06T05:30:24.796Z,28.48
2018-07-06T05:31:41.141Z,28.87
2018-07-06T05:32:57.834Z,29.18
2018-07-06T05:34:15.793Z,29.53
2018-07-06T05:35:33.170Z,29.87
2018-07-06T05:36:49.603Z,30.17
2018-07-06T05:38:06.059Z,30.44
2018-07-06T05:39:23.366Z,30.71
2018-07-06T05:40:40.852Z,30.97
2018-07-06T05:41:57.632Z,31.11
2018-07-06T05:43:15.270Z,31.03
2018-07-06T05:44:31.598Z,30.99
2018-07-06T05:45:48.170Z,30.90
2018-07-06T05:47:05.460Z,30.77
2018-07-06T05:48:24.326Z,30.62
2018-07-06T05:49:42.074Z,30.41
2018-07-06T05:50:59.316Z,30.25
2018-07-06T05:52:15.764Z,30.08
2018-07-06T05:53:33.426Z,29.90
2018-07-06T05:54:59.408Z,29.70
2018-07-06T05:56:23.088Z,29.58
2018-07-06T05:57:40.999Z,29.41
2018-07-06T05:59:00.362Z,29.35
2018-07-06T06:00:17.024Z,29.24
2018-07-06T06:01:33.666Z,29.15
2018-07-06T06:02:50.586Z,29.11
2018-07-06T06:04:07.854Z,29.11
2018-07-06T06:05:25.872Z,29.21
2018-07-06T06:06:42.128Z,29.24
2018-07-06T06:07:46.278Z,29.36
2018-07-06T06:08:51.977Z,29.63
2018-07-06T06:09:58.135Z,29.97
2018-07-06T06:11:04.130Z,30.22
2018-07-06T06:12:12.749Z,30.32
2018-07-06T06:13:18.946Z,30.41
2018-07-06T06:14:25.577Z,30.48
2018-07-06T06:15:31.740Z,30.72
2018-07-06T06:16:37.804Z,30.78
2018-07-06T06:17:45.697Z,30.73
2018-07-06T06:18:53.231Z,30.72
2018-07-06T06:20:00.030Z,30.85
2018-07-06T06:21:06.203Z,31.04
2018-07-06T06:22:14.185Z,31.09
2018-07-06T06:23:20.674Z,31.08
2018-07-06T06:24:30.676Z,31.11
2018-07-06T06:25:36.897Z,31.19
2018-07-06T06:26:43.410Z,31.43
2018-07-06T06:27:49.730Z,31.84
2018-07-06T06:28:57.115Z,32.16
2018-07-06T06:30:04.698Z,32.24
2018-07-06T06:31:10.772Z,32.23
2018-07-06T06:32:20.368Z,32.14
2018-07-06T06:33:31.084Z,32.03
2018-07-06T06:34:38.856Z,31.90
2018-07-06T06:35:47.589Z,31.75
2018-07-06T06:36:56.072Z,31.61
2018-07-06T06:38:03.221Z,31.50
2018-07-06T06:39:10.443Z,31.42
2018-07-06T06:40:17.132Z,31.60
2018-07-06T06:41:25.174Z,31.63
2018-07-06T06:42:32.180Z,31.60
2018-07-06T06:43:38.494Z,31.62
2018-07-06T06:44:46.309Z,31.58
2018-07-06T06:45:54.621Z,31.54
2018-07-06T06:47:01.619Z,31.51
2018-07-06T06:48:07.902Z,31.48
2018-07-06T06:49:15.007Z,31.47
2018-07-06T06:50:22.763Z,31.48
2018-07-06T06:51:28.954Z,31.48
2018-07-06T06:52:35.195Z,31.64
2018-07-06T06:53:42.950Z,31.74
2018-07-06T06:54:49.271Z,32.00
2018-07-06T06:55:56.150Z,32.14
2018-07-06T06:57:03.080Z,32.17
2018-07-06T06:58:09.724Z,32.18
2018-07-06T06:59:18.093Z,32.15
2018-07-06T07:00:27.534Z,32.10
2018-07-06T07:01:32.856Z,32.04
2018-07-06T07:02:39.550Z,31.99
2018-07-06T07:03:45.830Z,31.89
2018-07-06T07:04:52.173Z,31.81
2018-07-06T07:06:00.521Z,31.73
2018-07-06T07:07:07.871Z,31.69
2018-07-06T07:08:16.193Z,31.94
2018-07-06T07:09:24.296Z,32.42
2018-07-06T07:10:31.452Z,33.01
2018-07-06T07:11:37.849Z,33.35
2018-07-06T07:12:44.046Z,33.41
2018-07-06T07:13:51.115Z,33.39
2018-07-06T07:14:57.272Z,33.31
2018-07-06T07:16:04.449Z,33.33
2018-07-06T07:17:11.256Z,33.66
2018-07-06T07:18:17.980Z,34.06
2018-07-06T07:19:24.568Z,34.49
2018-07-06T07:20:30.870Z,34.90
2018-07-06T07:21:37.231Z,35.03
2018-07-06T07:22:44.470Z,34.92
2018-07-06T07:23:51.031Z,34.63
2018-07-06T07:24:57.496Z,34.41
2018-07-06T07:26:03.890Z,34.52
2018-07-06T07:27:09.765Z,34.60
2018-07-06T07:28:16.314Z,34.50
2018-07-06T07:29:22.467Z,34.36
2018-07-06T07:30:29.717Z,34.38
2018-07-06T07:31:36.464Z,34.57
2018-07-06T07:32:44.564Z,34.69
2018-07-06T07:33:50.908Z,34.94
2018-07-06T07:34:56.961Z,35.28
2018-07-06T07:36:03.091Z,35.64
2018-07-06T07:37:09.873Z,36.03
2018-07-06T07:38:18.377Z,36.41
2018-07-06T07:39:25.265Z,36.76
2018-07-06T07:40:32.383Z,37.06
2018-07-06T07:41:38.455Z,37.36
2018-07-06T07:42:44.653Z,37.65
2018-07-06T07:43:51.773Z,37.91
2018-07-06T07:44:58.601Z,38.13
2018-07-06T07:46:05.309Z,38.32
2018-07-06T07:47:11.407Z,38.50
2018-07-06T07:48:17.459Z,38.69
2018-07-06T07:49:23.385Z,38.89
2018-07-06T07:50:30.488Z,39.09
2018-07-06T07:52:00.709Z,39.25
2018-07-06T07:53:17.533Z,39.45
2018-07-06T07:54:29.432Z,39.63
2018-07-06T07:55:35.925Z,39.81
2018-07-06T07:56:42.417Z,39.95
2018-07-06T07:57:48.717Z,40.05
2018-07-06T07:58:54.935Z,40.05
2018-07-06T08:00:01.157Z,40.04
2018-07-06T08:01:07.746Z,40.07
2018-07-06T08:02:14.160Z,40.11
2018-07-06T08:03:21.220Z,40.21
2018-07-06T08:04:27.473Z,40.30
2018-07-06T08:05:36.121Z,40.42
2018-07-06T08:06:42.288Z,40.53
2018-07-06T08:07:48.577Z,40.61
2018-07-06T08:08:58.341Z,40.69
2018-07-06T08:10:07.468Z,40.80
2018-07-06T08:11:16.013Z,40.95
2018-07-06T08:12:24.743Z,41.08
2018-07-06T08:13:31.749Z,41.21
2018-07-06T08:14:38.494Z,41.33
2018-07-06T08:15:44.987Z,41.38
2018-07-06T08:16:51.366Z,41.13
2018-07-06T08:17:57.675Z,40.62
2018-07-06T08:19:05.283Z,40.34
2018-07-06T08:20:14.277Z,40.37
2018-07-06T08:21:20.317Z,40.42
2018-07-06T08:22:26.288Z,40.49
2018-07-06T08:23:33.326Z,40.61
2018-07-06T08:24:40.118Z,40.68
2018-07-06T08:25:47.057Z,40.72
2018-07-06T08:26:53.198Z,40.77
2018-07-06T08:27:59.441Z,40.82
2018-07-06T08:29:05.642Z,40.89
2018-07-06T08:30:11.871Z,40.96
2018-07-06T08:31:20.355Z,41.02
2018-07-06T08:32:27.837Z,41.11
2018-07-06T08:33:38.148Z,41.19
2018-07-06T08:34:54.835Z,41.34
2018-07-06T08:36:29.026Z,41.46
2018-07-06T08:37:46.791Z,41.55
2018-07-06T08:38:54.455Z,41.63
2018-07-06T08:40:00.833Z,41.68
2018-07-06T08:41:07.393Z,41.70
2018-07-06T08:42:13.363Z,41.70
2018-07-06T08:43:19.505Z,41.69
2018-07-06T08:44:25.648Z,41.72
2018-07-06T08:45:32.575Z,41.71
2018-07-06T08:46:38.662Z,41.71
2018-07-06T08:47:45.093Z,41.74
2018-07-06T08:48:51.320Z,41.80
2018-07-06T08:49:59.156Z,41.89
2018-07-06T08:51:05.748Z,42.00
2018-07-06T08:52:11.866Z,42.06
2018-07-06T08:53:17.988Z,42.13
2018-07-06T08:54:24.874Z,42.25
2018-07-06T08:55:31.356Z,42.40
2018-07-06T08:56:37.449Z,42.49
2018-07-06T08:57:44.666Z,42.49
2018-07-06T08:58:52.093Z,42.50
2018-07-06T08:59:58.142Z,42.56
2018-07-06T09:01:05.275Z,42.60
2018-07-06T09:02:11.533Z,42.66
2018-07-06T09:03:18.461Z,42.72
2018-07-06T09:04:25.520Z,42.79
2018-07-06T09:05:31.541Z,42.82
2018-07-06T09:06:38.216Z,42.84
2018-07-06T09:07:44.541Z,42.91
2018-07-06T09:08:50.646Z,43.01
2018-07-06T09:09:59.365Z,43.07
2018-07-06T09:11:08.329Z,42.85
2018-07-06T09:12:15.448Z,42.46
2018-07-06T09:13:21.603Z,42.33
2018-07-06T09:14:27.675Z,42.40
2018-07-06T09:15:34.401Z,42.15
2018-07-06T09:16:42.215Z,41.52
2018-07-06T09:17:48.220Z,41.17
2018-07-06T09:18:54.386Z,41.22
2018-07-06T09:20:01.383Z,41.39
2018-07-06T09:21:07.238Z,41.54
2018-07-06T09:22:14.348Z,41.66
2018-07-06T09:23:20.582Z,41.36
2018-07-06T09:24:27.110Z,40.80
2018-07-06T09:25:33.634Z,40.26
2018-07-06T09:26:39.693Z,40.14
2018-07-06T09:27:46.544Z,40.05
2018-07-06T09:28:53.162Z,40.12
2018-07-06T09:29:59.412Z,40.21
2018-07-06T09:31:08.454Z,40.30
2018-07-06T09:32:14.674Z,40.27
2018-07-06T09:33:20.802Z,40.18
2018-07-06T09:34:26.848Z,40.07
2018-07-06T09:35:34.196Z,39.79
2018-07-06T09:36:41.580Z,39.32
2018-07-06T09:37:51.431Z,38.80
2018-07-06T09:38:57.347Z,38.36
2018-07-06T09:40:04.292Z,38.08
2018-07-06T09:41:12.979Z,37.82
2018-07-06T09:42:19.410Z,37.52
2018-07-06T09:43:25.605Z,37.27
2018-07-06T09:44:31.705Z,37.01
2018-07-06T09:45:37.804Z,36.73
2018-07-06T09:46:45.765Z,36.46
2018-07-06T09:47:52.028Z,36.20
2018-07-06T09:48:57.988Z,35.97
2018-07-06T09:50:03.989Z,35.75
2018-07-06T09:51:10.106Z,35.57
2018-07-06T09:52:16.130Z,35.37
2018-07-06T09:53:24.090Z,35.21
2018-07-06T09:54:30.385Z,35.09
2018-07-06T09:55:37.367Z,35.00
2018-07-06T10:54:08.190Z,31.84
2018-07-06T10:55:15.384Z,31.92
2018-07-06T10:56:25.941Z,31.99
2018-07-06T10:57:34.242Z,32.04
2018-07-06T10:58:41.150Z,32.08
2018-07-06T10:59:48.156Z,32.09
2018-07-06T11:00:54.990Z,32.12
2018-07-06T11:02:04.375Z,32.09
2018-07-06T11:03:11.249Z,32.10
2018-07-06T11:04:18.188Z,32.10
2018-07-06T11:05:26.830Z,32.09
2018-07-06T11:06:33.470Z,32.08
2018-07-06T11:07:40.610Z,32.03
2018-07-06T11:08:47.511Z,31.96
2018-07-06T11:09:54.586Z,31.95
2018-07-06T11:11:01.143Z,31.90
2018-07-06T11:12:07.782Z,31.86
2018-07-06T11:13:16.631Z,31.84
2018-07-06T11:14:26.770Z,31.83
2018-07-06T11:15:37.716Z,31.84
2018-07-06T11:16:44.334Z,31.85
2018-07-06T11:17:51.248Z,31.79
2018-07-06T11:18:57.842Z,31.74
2018-07-06T11:20:04.982Z,31.69
2018-07-06T11:21:11.658Z,31.66
2018-07-06T11:22:18.649Z,31.65
2018-07-06T11:23:25.076Z,31.65
2018-07-06T11:24:31.714Z,31.65
2018-07-06T11:25:38.367Z,31.59
2018-07-06T11:26:45.021Z,31.58
2018-07-06T11:27:55.114Z,31.58
2018-07-06T11:29:03.578Z,31.61
2018-07-06T11:30:10.295Z,31.63
2018-07-06T11:31:18.042Z,31.64
2018-07-06T11:32:24.791Z,31.66
2018-07-06T11:33:32.110Z,31.66
2018-07-06T11:34:38.721Z,31.64
2018-07-06T11:35:47.980Z,31.61
2018-07-06T11:36:54.644Z,31.61
2018-07-06T11:38:02.277Z,31.60
2018-07-06T11:39:12.706Z,31.57
2018-07-06T11:40:19.801Z,31.57
2018-07-06T11:41:27.560Z,31.58
2018-07-06T11:42:35.505Z,31.58
2018-07-06T11:43:43.888Z,31.63
2018-07-06T11:44:54.080Z,31.63
2018-07-06T11:46:01.338Z,31.64
2018-07-06T11:47:08.510Z,31.65
2018-07-06T11:48:15.006Z,31.65
2018-07-06T11:49:21.630Z,31.63
2018-07-06T11:50:28.715Z,31.61
2018-07-06T11:51:38.003Z,31.62
2018-07-06T11:52:45.553Z,31.63
2018-07-06T11:53:52.201Z,31.65
2018-07-06T11:54:59.406Z,31.69
2018-07-06T11:56:08.026Z,31.69
2018-07-06T11:57:15.605Z,31.68
2018-07-06T11:58:22.163Z,31.68
2018-07-06T11:59:30.400Z,31.69
2018-07-06T12:00:40.711Z,31.72
2018-07-06T12:01:48.369Z,31.71
2018-07-06T12:02:55.139Z,31.71
2018-07-06T12:04:01.738Z,31.74
2018-07-06T12:05:08.297Z,31.75
2018-07-06T12:06:14.776Z,31.76
2018-07-06T12:07:22.145Z,31.75
2018-07-06T12:08:29.517Z,31.77
2018-07-06T12:09:36.274Z,31.76
2018-07-06T12:10:43.709Z,31.76
2018-07-06T12:11:50.358Z,31.78
2018-07-06T12:12:58.967Z,31.80
2018-07-06T12:14:06.819Z,31.80
2018-07-06T12:15:14.660Z,31.81
2018-07-06T12:16:22.032Z,31.81
2018-07-06T12:17:28.810Z,31.82
2018-07-06T12:18:36.861Z,31.84
2018-07-06T12:19:43.713Z,31.87
2018-07-06T12:20:51.488Z,31.91
2018-07-06T12:21:59.239Z,31.93
2018-07-06T12:23:07.295Z,31.98
2018-07-06T12:24:14.470Z,32.01
2018-07-06T12:25:20.914Z,32.00
2018-07-06T12:26:27.469Z,32.03
2018-07-06T12:27:34.046Z,32.05
2018-07-06T12:28:41.318Z,32.08
2018-07-06T12:29:48.126Z,32.10
2018-07-06T12:30:54.603Z,32.14
2018-07-06T12:32:02.938Z,32.17
2018-07-06T12:33:09.474Z,32.19
2018-07-06T12:34:17.576Z,32.20
2018-07-06T12:35:25.947Z,32.18
2018-07-06T12:36:32.383Z,32.21
2018-07-06T12:37:39.338Z,32.21
2018-07-06T12:39:03.386Z,32.21
2018-07-06T12:40:10.453Z,32.20
2018-07-06T12:41:18.057Z,32.19
2018-07-06T12:42:26.770Z,32.24
2018-07-06T12:43:36.242Z,32.29
2018-07-06T12:44:43.826Z,32.31
2018-07-06T12:45:52.820Z,32.32
2018-07-06T12:46:59.297Z,32.35
2018-07-06T12:48:08.245Z,32.39
2018-07-06T12:49:15.798Z,32.41
2018-07-06T12:50:23.477Z,32.42
2018-07-06T12:51:29.998Z,32.39
2018-07-06T12:52:39.945Z,32.39
2018-07-06T12:53:46.457Z,32.36
2018-07-06T12:54:54.401Z,32.37
2018-07-06T12:56:01.382Z,32.37
2018-07-06T12:57:08.180Z,32.36
2018-07-06T12:58:17.452Z,32.32
2018-07-06T12:59:26.485Z,32.32
2018-07-06T13:00:33.325Z,32.30
2018-07-06T13:01:40.288Z,32.29
2018-07-06T13:02:50.164Z,32.28
2018-07-06T13:03:59.955Z,32.30
2018-07-06T13:05:06.845Z,32.32
2018-07-06T13:06:16.438Z,32.36
2018-07-06T13:07:24.186Z,32.39
2018-07-06T13:08:31.662Z,32.42
2018-07-06T13:09:38.272Z,32.47
2018-07-06T13:10:44.760Z,32.49
2018-07-06T13:11:52.652Z,32.46
2018-07-06T13:12:59.937Z,32.43
2018-07-06T13:14:08.746Z,32.40
2018-07-06T13:15:16.294Z,32.33
2018-07-06T13:16:23.093Z,32.26
2018-07-06T13:17:30.681Z,32.20
2018-07-06T14:07:48.480Z,30.09
2018-07-06T14:08:55.144Z,30.13
2018-07-06T14:10:01.825Z,30.15
2018-07-06T14:11:09.013Z,30.20
2018-07-06T14:12:15.885Z,30.17
2018-07-06T14:13:22.571Z,30.14
2018-07-06T14:14:29.450Z,30.10
2018-07-06T14:15:37.351Z,30.04
2018-07-06T14:16:44.780Z,29.97
2018-07-06T14:17:51.387Z,29.93
2018-07-06T14:18:57.955Z,29.93
2018-07-06T14:20:05.361Z,29.89
2018-07-06T14:21:11.800Z,29.91
2018-07-06T14:22:18.197Z,29.94
2018-07-06T14:23:24.727Z,29.96
2018-07-06T14:24:31.367Z,29.98
2018-07-06T14:25:38.552Z,29.98
2018-07-06T14:26:46.853Z,29.96
2018-07-06T14:27:54.588Z,29.95
2018-07-06T14:29:02.182Z,29.97
2018-07-06T14:30:09.380Z,29.97
2018-07-06T14:31:15.792Z,29.98
2018-07-06T14:32:22.367Z,29.97
2018-07-06T14:33:30.735Z,29.97
2018-07-06T14:34:37.363Z,29.98
2018-07-06T14:35:46.082Z,29.95
2018-07-06T14:36:54.448Z,29.95
2018-07-06T14:38:01.810Z,29.88
2018-07-06T14:39:09.371Z,29.91
2018-07-06T14:40:15.905Z,29.88
2018-07-06T14:41:22.689Z,29.90
2018-07-06T14:42:30.125Z,29.87
2018-07-06T14:43:37.447Z,29.86
2018-07-06T14:44:44.079Z,29.87
2018-07-06T14:45:50.699Z,29.87
2018-07-06T14:46:57.197Z,29.89
2018-07-06T14:48:05.527Z,29.91
2018-07-06T14:49:12.290Z,29.85
2018-07-06T14:50:21.661Z,29.88
2018-07-06T14:51:28.260Z,29.84
2018-07-06T14:52:35.769Z,29.82
2018-07-06T14:53:42.416Z,29.78
2018-07-06T14:54:48.989Z,29.79
2018-07-06T14:55:55.572Z,29.72
2018-07-06T14:57:02.154Z,29.82
2018-07-06T14:58:11.254Z,29.80
2018-07-06T14:59:18.838Z,29.83
2018-07-06T15:00:27.155Z,29.82
2018-07-06T15:01:34.740Z,29.77
2018-07-06T15:02:45.650Z,29.83
2018-07-06T15:03:52.204Z,29.85
2018-07-06T15:04:58.612Z,29.88
2018-07-06T15:06:08.916Z,29.85
2018-07-06T15:07:15.504Z,29.88
2018-07-06T15:08:22.075Z,29.88
2018-07-06T15:09:29.328Z,29.90
2018-07-06T15:10:36.875Z,29.92
2018-07-06T15:11:44.441Z,29.93
2018-07-06T15:12:50.866Z,29.91
2018-07-06T15:13:57.589Z,29.97
2018-07-06T15:15:04.088Z,30.05
2018-07-06T15:16:10.877Z,30.09
2018-07-06T15:17:19.000Z,30.11
2018-07-06T15:18:25.510Z,30.14
2018-07-06T15:19:32.610Z,30.16
2018-07-06T15:20:40.912Z,30.20
2018-07-06T15:21:47.675Z,30.24
2018-07-06T15:22:54.550Z,30.26
2018-07-06T15:24:02.451Z,30.30
2018-07-06T15:25:09.729Z,30.33
2018-07-06T15:26:16.328Z,30.35
2018-07-06T15:27:24.853Z,30.36
2018-07-06T15:28:31.331Z,30.39
2018-07-06T15:29:38.050Z,30.40
2018-07-06T15:30:44.670Z,30.40
2018-07-06T15:31:51.601Z,30.41
2018-07-06T15:32:59.040Z,30.42
2018-07-06T15:34:05.724Z,30.45
2018-07-06T15:35:13.826Z,30.48
2018-07-06T15:36:21.681Z,30.49
2018-07-06T15:37:31.922Z,30.51
2018-07-06T15:38:38.867Z,30.52
2018-07-06T15:39:45.739Z,30.54
2018-07-06T15:40:52.272Z,30.54
2018-07-06T15:42:00.106Z,30.56
2018-07-06T15:43:07.991Z,30.58
2018-07-06T15:44:16.043Z,30.60
2018-07-06T15:45:23.532Z,30.61
2018-07-06T15:46:30.800Z,30.61
2018-07-06T15:47:37.524Z,30.62
2018-07-06T15:48:44.500Z,30.64
2018-07-06T15:49:51.460Z,30.65
2018-07-06T15:50:59.409Z,30.66
2018-07-06T15:52:09.270Z,30.66
2018-07-06T15:53:19.017Z,30.64
2018-07-06T15:54:25.790Z,30.67
2018-07-06T15:55:33.438Z,30.65
2018-07-06T15:56:41.560Z,30.68
2018-07-06T15:57:53.086Z,30.66
2018-07-06T15:58:59.670Z,30.66
2018-07-06T16:00:07.412Z,30.67
2018-07-06T16:01:13.696Z,30.67
2018-07-06T16:02:21.259Z,30.66
2018-07-06T16:03:27.740Z,30.66
2018-07-06T16:04:36.882Z,30.65
2018-07-06T16:05:43.385Z,30.66
2018-07-06T16:06:51.431Z,30.63
2018-07-06T16:07:58.880Z,30.60
2018-07-06T16:09:05.916Z,30.61
2018-07-06T16:10:12.818Z,30.60
2018-07-06T16:11:19.194Z,30.59
2018-07-06T16:12:25.819Z,30.59
2018-07-06T16:13:32.328Z,30.58
2018-07-06T16:14:39.310Z,30.59
2018-07-06T16:15:45.742Z,30.58
2018-07-06T16:19:10.062Z,30.48
2018-07-06T16:20:16.455Z,30.44
2018-07-06T16:21:23.744Z,30.42
2018-07-06T16:22:31.934Z,30.43
2018-07-06T16:23:38.718Z,30.44
2018-07-06T16:24:46.620Z,30.42
2018-07-06T16:25:57.183Z,30.44
2018-07-06T16:27:04.302Z,30.44
2018-07-06T16:28:11.620Z,30.43
2018-07-06T16:29:18.869Z,30.42
2018-07-06T16:30:25.674Z,30.39
2018-07-06T16:31:32.672Z,30.38
2018-07-06T16:32:41.366Z,30.37
2018-07-06T16:33:49.449Z,30.35
2018-07-06T16:34:57.474Z,30.34
2018-07-06T16:36:05.309Z,30.33
2018-07-06T16:37:12.694Z,30.30
2018-07-06T16:38:20.058Z,30.31
2018-07-06T16:39:27.619Z,30.32
2018-07-06T16:40:34.860Z,30.28
2018-07-06T16:41:46.992Z,30.30
2018-07-06T16:42:53.448Z,30.29
2018-07-06T16:43:59.844Z,30.27
2018-07-06T16:45:06.952Z,30.27
2018-07-06T16:46:14.393Z,30.28
2018-07-06T16:47:21.838Z,30.29
2018-07-06T16:48:30.776Z,30.28
2018-07-06T16:49:37.218Z,30.28
2018-07-06T16:50:44.142Z,30.28
2018-07-06T16:51:50.496Z,30.26
2018-07-06T16:52:57.234Z,30.25
2018-07-06T16:54:03.819Z,30.24
2018-07-06T16:55:10.241Z,30.24
2018-07-06T16:56:16.653Z,30.24
2018-07-06T16:57:23.189Z,30.22
2018-07-06T16:58:30.105Z,30.18
2018-07-06T16:59:37.622Z,30.24
2018-07-06T17:00:44.482Z,30.20
2018-07-06T17:01:52.465Z,30.21
2018-07-06T17:02:59.521Z,30.18
2018-07-06T17:04:06.223Z,30.18
2018-07-06T17:05:13.555Z,30.18
2018-07-06T17:06:20.580Z,30.20
2018-07-06T17:07:27.660Z,30.20
2018-07-06T17:08:33.973Z,30.21
2018-07-06T17:09:42.720Z,30.21
2018-07-06T17:10:51.780Z,30.20
2018-07-06T17:11:58.929Z,30.23
2018-07-06T17:13:06.368Z,30.17
2018-07-06T17:14:13.216Z,30.19
2018-07-06T17:15:19.748Z,30.18
2018-07-06T17:16:28.933Z,30.17
2018-07-06T17:17:35.498Z,30.16
2018-07-06T17:18:44.027Z,30.19
2018-07-06T17:19:50.979Z,30.16
2018-07-06T17:20:59.458Z,30.19
2018-07-06T17:22:05.987Z,30.16
2018-07-06T17:23:14.600Z,30.15
2018-07-06T17:24:21.026Z,30.15
2018-07-06T17:25:27.644Z,30.16
2018-07-06T17:26:34.218Z,30.16
2018-07-06T17:27:41.868Z,30.13
2018-07-06T17:28:49.280Z,30.16
2018-07-06T17:29:57.006Z,30.13
2018-07-06T17:31:04.784Z,30.08
2018-07-06T17:32:12.091Z,30.13
2018-07-06T17:33:19.946Z,30.12
2018-07-06T17:34:27.101Z,30.12
2018-07-06T17:35:33.888Z,30.12
2018-07-06T17:36:41.448Z,30.14
2018-07-06T17:37:49.994Z,30.13
2018-07-06T17:38:56.683Z,30.14
2018-07-06T17:40:05.435Z,30.15
2018-07-06T17:41:13.912Z,30.16
2018-07-06T17:42:21.746Z,30.16
2018-07-06T17:43:28.483Z,30.16
2018-07-06T17:44:35.290Z,30.18
2018-07-06T17:45:42.104Z,30.17
2018-07-06T17:46:49.595Z,30.18
2018-07-06T17:47:57.627Z,30.20
2018-07-06T17:49:04.332Z,30.22
2018-07-06T17:50:11.549Z,30.13
2018-07-06T17:51:18.320Z,30.19
2018-07-06T17:52:24.960Z,30.18
2018-07-06T17:53:32.691Z,30.17
2018-07-06T17:54:39.865Z,30.12
2018-07-06T17:55:47.815Z,30.15
2018-07-06T17:56:55.016Z,30.14
2018-07-06T17:58:02.355Z,30.09
2018-07-06T17:59:10.206Z,30.08
2018-07-06T18:00:17.326Z,30.11
2018-07-06T18:01:24.590Z,30.11
2018-07-06T18:02:32.437Z,30.10
2018-07-06T18:03:39.546Z,30.09
2018-07-06T18:04:47.250Z,30.02
2018-07-06T18:05:55.108Z,30.06
2018-07-06T18:07:03.702Z,29.98
2018-07-06T18:08:11.321Z,29.99
2018-07-06T18:09:19.169Z,29.96
2018-07-06T18:10:26.146Z,29.95
2018-07-06T18:11:35.244Z,29.94
2018-07-06T18:12:42.227Z,29.91
2018-07-06T18:13:49.026Z,29.83
2018-07-06T18:14:57.695Z,29.84
2018-07-06T18:16:04.364Z,29.81
2018-07-06T18:17:14.545Z,29.82
2018-07-06T18:18:21.456Z,29.79
2018-07-06T18:19:28.650Z,29.77
2018-07-06T18:20:35.552Z,29.75
2018-07-06T18:21:44.201Z,29.71
2018-07-06T18:22:52.222Z,29.70
2018-07-06T18:23:59.390Z,29.70
2018-07-06T18:25:08.766Z,29.66
2018-07-06T18:26:16.037Z,29.57
2018-07-06T18:27:22.580Z,29.62
2018-07-06T18:28:29.857Z,29.61
2018-07-06T18:29:38.741Z,29.57
2018-07-06T18:30:45.452Z,29.59
2018-07-06T18:31:52.864Z,29.58
2018-07-06T18:33:00.479Z,29.54
2018-07-06T18:34:07.561Z,29.52
2018-07-06T18:35:15.091Z,29.50
2018-07-06T18:36:23.479Z,29.48
2018-07-06T18:37:31.515Z,29.46
2018-07-06T18:38:38.463Z,29.44
2018-07-06T18:39:45.017Z,29.42
2018-07-06T18:40:51.869Z,29.41
2018-07-06T18:41:59.895Z,29.31
2018-07-06T18:43:08.090Z,29.35
2018-07-06T18:44:14.899Z,29.32
2018-07-06T18:45:22.010Z,29.25
2018-07-06T18:46:30.788Z,29.23
2018-07-06T18:47:40.571Z,29.22
2018-07-06T18:48:47.525Z,29.19
2018-07-06T18:49:57.056Z,29.14
2018-07-06T18:51:03.931Z,29.11
2018-07-06T18:52:10.833Z,29.07
2018-07-06T18:53:18.827Z,29.04
2018-07-06T18:54:25.749Z,29.00
2018-07-06T18:55:35.932Z,28.97
2018-07-06T18:56:43.503Z,28.96
2018-07-06T18:57:52.405Z,28.96
2018-07-06T18:59:00.062Z,28.93
2018-07-06T19:00:09.881Z,28.93
2018-07-06T19:01:16.801Z,28.89
2018-07-06T19:02:24.928Z,28.85
2018-07-06T19:03:59.154Z,28.80
2018-07-06T19:05:06.913Z,28.75
2018-07-06T19:06:18.256Z,28.70
2018-07-06T19:07:24.745Z,28.67
2018-07-06T19:08:32.654Z,28.64
2018-07-06T19:09:39.982Z,28.62
2018-07-06T19:10:47.318Z,28.67
2018-07-06T19:11:56.033Z,28.65
2018-07-06T19:13:03.749Z,28.66
2018-07-06T19:14:11.020Z,28.66
2018-07-06T19:15:23.863Z,28.65
2018-07-06T19:16:31.347Z,28.63
2018-07-06T19:17:40.230Z,28.63
2018-07-06T19:18:47.458Z,28.61
2018-07-06T19:19:55.678Z,28.60
2018-07-06T19:21:03.646Z,28.59
2018-07-06T19:22:12.876Z,28.58
2018-07-06T19:23:22.048Z,28.56
2018-07-06T19:24:28.708Z,28.53
2018-07-06T19:25:36.150Z,28.49
2018-07-06T19:26:43.292Z,28.48
2018-07-06T19:27:52.261Z,28.47
2018-07-06T19:29:01.669Z,28.44
2018-07-06T19:30:08.444Z,28.42
2018-07-06T19:31:16.197Z,28.40
2018-07-06T19:32:25.786Z,28.38
2018-07-06T19:33:33.100Z,28.38
2018-07-06T19:34:40.283Z,28.34
2018-07-06T19:35:47.875Z,28.33
2018-07-06T19:36:55.028Z,28.32
2018-07-06T19:38:03.287Z,28.28
2018-07-06T19:39:10.440Z,28.26
2018-07-06T19:40:18.179Z,28.25
2018-07-06T19:41:26.774Z,28.22
2018-07-06T19:42:33.569Z,28.20
2018-07-06T19:43:42.498Z,28.20
2018-07-06T19:44:52.583Z,28.19
2018-07-06T19:46:00.767Z,28.17
2018-07-06T19:47:08.452Z,28.13
2018-07-06T19:48:14.955Z,28.13
2018-07-06T19:49:22.221Z,28.12
2018-07-06T19:50:31.357Z,28.09
2018-07-06T19:51:37.923Z,28.10
2018-07-06T19:52:44.616Z,28.07
2018-07-06T19:53:51.551Z,28.05
2018-07-06T19:54:59.791Z,28.05
2018-07-06T19:56:07.335Z,28.02
2018-07-06T19:57:15.104Z,27.99
2018-07-06T19:58:22.543Z,27.97
2018-07-06T19:59:29.828Z,27.97
2018-07-06T20:00:36.422Z,27.95
2018-07-06T20:01:43.867Z,27.95
2018-07-06T20:02:51.391Z,27.95
2018-07-06T20:03:58.793Z,27.95
2018-07-06T20:05:05.446Z,27.95
2018-07-06T20:06:14.344Z,27.95
2018-07-06T20:08:50.976Z,27.90
2018-07-06T20:09:57.730Z,27.88
2018-07-06T20:11:04.424Z,27.88
2018-07-06T20:12:11.133Z,27.92
2018-07-06T20:13:18.300Z,27.94
2018-07-06T20:14:24.482Z,27.94
2018-07-06T20:15:30.812Z,27.97
2018-07-06T20:16:37.407Z,27.99
2018-07-06T20:17:47.012Z,28.00
2018-07-06T20:18:53.708Z,28.01
2018-07-06T20:20:00.544Z,28.01
2018-07-06T20:21:07.260Z,28.01
2018-07-06T20:22:15.547Z,28.02
2018-07-06T20:23:25.124Z,28.01
2018-07-06T20:24:31.620Z,28.03
2018-07-06T20:25:37.871Z,27.99
2018-07-06T20:26:43.960Z,28.00
2018-07-06T20:27:50.539Z,28.02
2018-07-06T20:28:56.878Z,27.99
2018-07-06T20:30:03.107Z,28.00
2018-07-06T20:31:09.520Z,27.95
2018-07-06T20:32:15.553Z,27.93
2018-07-06T20:33:22.469Z,27.92
2018-07-06T20:34:29.192Z,27.89
2018-07-06T20:35:36.472Z,27.85
2018-07-06T20:36:43.133Z,27.83
2018-07-06T20:37:49.200Z,27.76
2018-07-06T20:38:55.207Z,27.71
2018-07-06T20:40:06.573Z,27.67
2018-07-06T20:41:16.813Z,27.61
2018-07-06T20:42:23.400Z,27.56
2018-07-06T20:43:29.895Z,27.49
2018-07-06T20:44:36.162Z,27.47
2018-07-06T20:45:43.486Z,27.43
2018-07-06T20:46:51.636Z,27.38
2018-07-06T20:47:59.378Z,27.36
2018-07-06T20:49:05.666Z,27.35
2018-07-06T20:50:11.913Z,27.33
2018-07-06T20:51:18.972Z,27.31
2018-07-06T20:52:28.005Z,27.30
2018-07-06T20:53:34.479Z,27.30
2018-07-06T20:54:41.242Z,27.27
2018-07-06T20:55:49.360Z,27.24
2018-07-06T20:56:56.231Z,27.22
2018-07-06T20:58:03.862Z,27.21
2018-07-06T20:59:09.946Z,27.21
2018-07-06T21:00:16.640Z,27.21
2018-07-06T21:01:23.683Z,27.22
2018-07-06T21:02:29.820Z,27.22
2018-07-06T21:03:36.426Z,27.22
2018-07-06T21:04:42.549Z,27.23
2018-07-06T21:05:50.257Z,27.21
2018-07-06T21:08:48.949Z,27.20
2018-07-06T21:09:55.231Z,27.18
2018-07-06T21:11:02.368Z,27.20
2018-07-06T21:12:10.624Z,27.24
2018-07-06T21:13:17.942Z,27.25
2018-07-06T21:14:26.549Z,27.26
2018-07-06T21:15:33.512Z,27.26
2018-07-06T21:16:40.833Z,27.28
2018-07-06T21:17:48.180Z,27.31
2018-07-06T21:18:54.561Z,27.33
2018-07-06T21:20:01.055Z,27.34
2018-07-06T21:21:08.299Z,27.33
2018-07-06T21:22:16.466Z,27.35